sensor_id;sensor_type;location;lat;lon;timestamp;pressure;altitude;pressure_sealevel;temperature;humidity
23166;BME280;11751;42.700;24.170;2023-02-28T00:00:23;94447.25;;;7.82;nan
23166;BME280;11751;42.700;24.170;2023-02-28T00:02:49;94453.25;;;7.86;nan
23166;BME280;11751;42.700;24.170;2023-02-28T00:05:17;94464.09;;;7.90;nan
23166;BME280;11751;42.700;24.170;2023-02-28T00:07:43;94463.50;;;7.97;nan
23166;BME280;11751;42.700;24.170;2023-02-28T00:10:14;94467.97;;;7.87;nan
23166;BME280;11751;42.700;24.170;2023-02-28T00:12:40;94468.63;;;7.93;nan
23166;BME280;11751;42.700;24.170;2023-02-28T00:15:08;94464.16;;;8.03;nan
23166;BME280;11751;42.700;24.170;2023-02-28T00:17:34;94460.25;;;7.93;nan
23166;BME280;11751;42.700;24.170;2023-02-28T00:19:59;94451.25;;;7.87;nan
23166;BME280;11751;42.700;24.170;2023-02-28T00:22:29;94444.97;;;7.68;nan
23166;BME280;11751;42.700;24.170;2023-02-28T00:24:55;94451.81;;;7.67;nan
23166;BME280;11751;42.700;24.170;2023-02-28T00:27:20;94461.78;;;7.75;nan
23166;BME280;11751;42.700;24.170;2023-02-28T00:29:46;94461.56;;;7.73;nan
23166;BME280;11751;42.700;24.170;2023-02-28T00:32:12;94462.88;;;7.72;nan
23166;BME280;11751;42.700;24.170;2023-02-28T00:34:37;94463.53;;;7.78;nan
23166;BME280;11751;42.700;24.170;2023-02-28T00:37:07;94457.78;;;7.89;nan
23166;BME280;11751;42.700;24.170;2023-02-28T00:39:34;94460.22;;;7.80;nan
23166;BME280;11751;42.700;24.170;2023-02-28T00:42:00;94455.09;;;7.84;nan
23166;BME280;11751;42.700;24.170;2023-02-28T00:44:26;94448.47;;;7.87;nan
23166;BME280;11751;42.700;24.170;2023-02-28T00:46:51;94444.28;;;7.62;nan
23166;BME280;11751;42.700;24.170;2023-02-28T00:49:19;94454.06;;;7.68;nan
23166;BME280;11751;42.700;24.170;2023-02-28T00:51:45;94451.34;;;7.63;nan
23166;BME280;11751;42.700;24.170;2023-02-28T00:54:10;94451.97;;;7.38;nan
23166;BME280;11751;42.700;24.170;2023-02-28T00:56:36;94448.22;;;7.35;nan
23166;BME280;11751;42.700;24.170;2023-02-28T00:59:01;94443.38;;;7.36;nan
23166;BME280;11751;42.700;24.170;2023-02-28T01:01:27;94430.66;;;7.40;nan
23166;BME280;11751;42.700;24.170;2023-02-28T01:03:52;94431.66;;;7.24;nan
23166;BME280;11751;42.700;24.170;2023-02-28T01:06:17;94431.34;;;7.28;nan
23166;BME280;11751;42.700;24.170;2023-02-28T01:08:43;94429.09;;;7.26;nan
23166;BME280;11751;42.700;24.170;2023-02-28T01:11:10;94436.03;;;7.38;nan
23166;BME280;11751;42.700;24.170;2023-02-28T01:13:36;94425.28;;;7.29;nan
23166;BME280;11751;42.700;24.170;2023-02-28T01:16:01;94411.16;;;7.40;nan
23166;BME280;11751;42.700;24.170;2023-02-28T01:18:27;94404.69;;;7.32;nan
23166;BME280;11751;42.700;24.170;2023-02-28T01:20:53;94410.81;;;7.12;nan
23166;BME280;11751;42.700;24.170;2023-02-28T01:23:20;94408.34;;;7.27;nan
23166;BME280;11751;42.700;24.170;2023-02-28T01:25:47;94411.34;;;7.29;nan
23166;BME280;11751;42.700;24.170;2023-02-28T01:28:12;94412.81;;;7.30;nan
23166;BME280;11751;42.700;24.170;2023-02-28T01:30:38;94409.84;;;7.28;nan
23166;BME280;11751;42.700;24.170;2023-02-28T01:33:03;94397.13;;;7.14;nan
23166;BME280;11751;42.700;24.170;2023-02-28T01:35:32;94399.91;;;7.14;nan
23166;BME280;11751;42.700;24.170;2023-02-28T01:37:58;94391.78;;;7.16;nan
23166;BME280;11751;42.700;24.170;2023-02-28T01:40:24;94392.81;;;7.13;nan
23166;BME280;11751;42.700;24.170;2023-02-28T01:42:49;94388.59;;;7.07;nan
23166;BME280;11751;42.700;24.170;2023-02-28T01:45:22;94388.75;;;7.14;nan
23166;BME280;11751;42.700;24.170;2023-02-28T01:47:50;94390.03;;;7.13;nan
23166;BME280;11751;42.700;24.170;2023-02-28T01:50:23;94389.38;;;7.07;nan
23166;BME280;11751;42.700;24.170;2023-02-28T01:52:50;94399.91;;;7.14;nan
23166;BME280;11751;42.700;24.170;2023-02-28T01:55:18;94398.41;;;7.13;nan
23166;BME280;11751;42.700;24.170;2023-02-28T01:57:50;94383.19;;;7.14;nan
23166;BME280;11751;42.700;24.170;2023-02-28T02:00:20;94383.56;;;7.24;nan
23166;BME280;11751;42.700;24.170;2023-02-28T02:02:51;94386.72;;;7.33;nan
23166;BME280;11751;42.700;24.170;2023-02-28T02:05:24;94388.75;;;7.33;nan
23166;BME280;11751;42.700;24.170;2023-02-28T02:07:54;94403.03;;;7.42;nan
23166;BME280;11751;42.700;24.170;2023-02-28T02:10:29;94394.28;;;7.51;nan
23166;BME280;11751;42.700;24.170;2023-02-28T02:15:51;94389.06;;;7.29;nan
23166;BME280;11751;42.700;24.170;2023-02-28T02:18:32;94380.47;;;7.27;nan
23166;BME280;11751;42.700;24.170;2023-02-28T02:42:48;94402.53;;;7.25;nan
23166;BME280;11751;42.700;24.170;2023-02-28T02:45:30;94404.78;;;7.27;nan
23166;BME280;11751;42.700;24.170;2023-02-28T02:48:02;94399.75;;;7.25;nan
23166;BME280;11751;42.700;24.170;2023-02-28T02:50:41;94403.88;;;7.19;nan
23166;BME280;11751;42.700;24.170;2023-02-28T02:53:09;94399.59;;;7.18;nan
23166;BME280;11751;42.700;24.170;2023-02-28T02:55:39;94396.88;;;7.12;nan
23166;BME280;11751;42.700;24.170;2023-02-28T02:58:10;94394.34;;;7.14;nan
23166;BME280;11751;42.700;24.170;2023-02-28T03:00:42;94401.72;;;7.12;nan
23166;BME280;11751;42.700;24.170;2023-02-28T03:03:09;94392.91;;;7.08;nan
23166;BME280;11751;42.700;24.170;2023-02-28T03:05:42;94411.78;;;6.96;nan
23166;BME280;11751;42.700;24.170;2023-02-28T03:08:10;94410.28;;;6.95;nan
23166;BME280;11751;42.700;24.170;2023-02-28T03:13:11;94418.41;;;6.93;nan
23166;BME280;11751;42.700;24.170;2023-02-28T03:23:41;94439.00;;;6.67;nan
23166;BME280;11751;42.700;24.170;2023-02-28T03:26:13;94443.41;;;6.33;nan
23166;BME280;11751;42.700;24.170;2023-02-28T03:29:03;94452.09;;;6.24;nan
23166;BME280;11751;42.700;24.170;2023-02-28T03:34:10;94460.56;;;6.37;nan
23166;BME280;11751;42.700;24.170;2023-02-28T03:36:47;94474.47;;;6.61;nan
23166;BME280;11751;42.700;24.170;2023-02-28T03:39:20;94467.13;;;6.63;nan
23166;BME280;11751;42.700;24.170;2023-02-28T03:42:03;94471.59;;;6.66;nan
23166;BME280;11751;42.700;24.170;2023-02-28T03:44:37;94472.94;;;6.83;nan
23166;BME280;11751;42.700;24.170;2023-02-28T03:47:08;94469.91;;;6.81;nan
23166;BME280;11751;42.700;24.170;2023-02-28T03:49:39;94468.97;;;6.97;nan
23166;BME280;11751;42.700;24.170;2023-02-28T03:52:08;94470.94;;;7.02;nan
23166;BME280;11751;42.700;24.170;2023-02-28T03:54:41;94466.88;;;7.03;nan
23166;BME280;11751;42.700;24.170;2023-02-28T03:57:27;94472.00;;;6.99;nan
23166;BME280;11751;42.700;24.170;2023-02-28T04:00:05;94465.72;;;6.93;nan
23166;BME280;11751;42.700;24.170;2023-02-28T04:02:32;94477.25;;;7.03;nan
23166;BME280;11751;42.700;24.170;2023-02-28T04:04:59;94481.03;;;7.05;nan
23166;BME280;11751;42.700;24.170;2023-02-28T04:07:29;94488.59;;;7.05;nan
23166;BME280;11751;42.700;24.170;2023-02-28T04:09:54;94487.81;;;7.10;nan
23166;BME280;11751;42.700;24.170;2023-02-28T04:12:20;94486.22;;;7.14;nan
23166;BME280;11751;42.700;24.170;2023-02-28T04:14:48;94480.88;;;7.16;nan
23166;BME280;11751;42.700;24.170;2023-02-28T04:17:14;94486.31;;;7.27;nan
23166;BME280;11751;42.700;24.170;2023-02-28T04:19:39;94490.63;;;7.28;nan
23166;BME280;11751;42.700;24.170;2023-02-28T04:22:05;94487.75;;;7.34;nan
23166;BME280;11751;42.700;24.170;2023-02-28T04:24:30;94494.44;;;7.25;nan
23166;BME280;11751;42.700;24.170;2023-02-28T04:26:57;94497.59;;;7.16;nan
23166;BME280;11751;42.700;24.170;2023-02-28T04:29:31;94497.28;;;7.20;nan
23166;BME280;11751;42.700;24.170;2023-02-28T04:32:00;94511.81;;;7.13;nan
23166;BME280;11751;42.700;24.170;2023-02-28T04:34:27;94501.13;;;6.75;nan
23166;BME280;11751;42.700;24.170;2023-02-28T04:36:54;94501.91;;;6.93;nan
23166;BME280;11751;42.700;24.170;2023-02-28T04:39:21;94505.41;;;7.18;nan
23166;BME280;11751;42.700;24.170;2023-02-28T04:41:46;94497.72;;;7.05;nan
23166;BME280;11751;42.700;24.170;2023-02-28T04:44:13;94514.91;;;7.28;nan
23166;BME280;11751;42.700;24.170;2023-02-28T04:46:38;94504.06;;;7.24;nan
23166;BME280;11751;42.700;24.170;2023-02-28T04:49:04;94495.72;;;7.24;nan
23166;BME280;11751;42.700;24.170;2023-02-28T04:51:29;94507.25;;;7.34;nan
23166;BME280;11751;42.700;24.170;2023-02-28T04:53:55;94518.91;;;7.32;nan
23166;BME280;11751;42.700;24.170;2023-02-28T04:56:21;94509.34;;;7.28;nan
23166;BME280;11751;42.700;24.170;2023-02-28T04:58:46;94508.84;;;7.29;nan
23166;BME280;11751;42.700;24.170;2023-02-28T05:03:48;94511.53;;;7.35;nan
23166;BME280;11751;42.700;24.170;2023-02-28T05:06:14;94507.97;;;7.16;nan
23166;BME280;11751;42.700;24.170;2023-02-28T05:08:40;94507.69;;;7.19;nan
23166;BME280;11751;42.700;24.170;2023-02-28T05:11:15;94507.91;;;7.21;nan
23166;BME280;11751;42.700;24.170;2023-02-28T05:13:41;94517.41;;;7.31;nan
23166;BME280;11751;42.700;24.170;2023-02-28T05:16:07;94509.66;;;7.24;nan
23166;BME280;11751;42.700;24.170;2023-02-28T05:18:32;94507.69;;;7.19;nan
23166;BME280;11751;42.700;24.170;2023-02-28T05:20:59;94509.53;;;7.11;nan
23166;BME280;11751;42.700;24.170;2023-02-28T05:23:27;94512.25;;;6.98;nan
23166;BME280;11751;42.700;24.170;2023-02-28T05:25:52;94520.13;;;7.18;nan
23166;BME280;11751;42.700;24.170;2023-02-28T05:28:19;94525.19;;;7.38;nan
23166;BME280;11751;42.700;24.170;2023-02-28T05:30:44;94537.66;;;7.50;nan
23166;BME280;11751;42.700;24.170;2023-02-28T05:33:11;94540.31;;;7.61;nan
23166;BME280;11751;42.700;24.170;2023-02-28T05:35:38;94536.94;;;7.68;nan
23166;BME280;11751;42.700;24.170;2023-02-28T05:38:04;94539.72;;;7.68;nan
23166;BME280;11751;42.700;24.170;2023-02-28T05:40:29;94555.22;;;7.82;nan
23166;BME280;11751;42.700;24.170;2023-02-28T05:42:55;94558.16;;;7.89;nan
23166;BME280;11751;42.700;24.170;2023-02-28T05:45:20;94553.78;;;7.94;nan
23166;BME280;11751;42.700;24.170;2023-02-28T05:47:45;94569.47;;;7.97;nan
23166;BME280;11751;42.700;24.170;2023-02-28T05:50:11;94559.19;;;8.05;nan
23166;BME280;11751;42.700;24.170;2023-02-28T05:52:37;94567.16;;;8.14;nan
23166;BME280;11751;42.700;24.170;2023-02-28T05:55:03;94559.34;;;8.12;nan
23166;BME280;11751;42.700;24.170;2023-02-28T05:57:29;94561.09;;;7.97;nan
23166;BME280;11751;42.700;24.170;2023-02-28T05:59:55;94559.44;;;8.07;nan
23166;BME280;11751;42.700;24.170;2023-02-28T06:02:20;94559.34;;;8.12;nan
23166;BME280;11751;42.700;24.170;2023-02-28T06:04:45;94561.59;;;8.14;nan
23166;BME280;11751;42.700;24.170;2023-02-28T06:07:11;94565.06;;;8.20;nan
23166;BME280;11751;42.700;24.170;2023-02-28T06:09:37;94570.34;;;8.05;nan
23166;BME280;11751;42.700;24.170;2023-02-28T06:12:04;94575.16;;;8.04;nan
23166;BME280;11751;42.700;24.170;2023-02-28T06:14:35;94575.94;;;8.05;nan
23166;BME280;11751;42.700;24.170;2023-02-28T06:17:01;94570.44;;;7.99;nan
23166;BME280;11751;42.700;24.170;2023-02-28T06:19:27;94568.22;;;8.11;nan
23166;BME280;11751;42.700;24.170;2023-02-28T06:21:54;94577.66;;;8.08;nan
23166;BME280;11751;42.700;24.170;2023-02-28T06:24:21;94578.03;;;7.99;nan
23166;BME280;11751;42.700;24.170;2023-02-28T06:26:47;94577.88;;;8.10;nan
23166;BME280;11751;42.700;24.170;2023-02-28T06:29:13;94567.34;;;8.03;nan
23166;BME280;11751;42.700;24.170;2023-02-28T06:31:42;94571.56;;;8.09;nan
23166;BME280;11751;42.700;24.170;2023-02-28T06:34:09;94569.13;;;8.19;nan
23166;BME280;11751;42.700;24.170;2023-02-28T06:36:37;94583.69;;;8.30;nan
23166;BME280;11751;42.700;24.170;2023-02-28T06:39:03;94579.41;;;8.42;nan
23166;BME280;11751;42.700;24.170;2023-02-28T06:41:29;94584.75;;;8.58;nan
23166;BME280;11751;42.700;24.170;2023-02-28T06:43:54;94580.16;;;8.74;nan
23166;BME280;11751;42.700;24.170;2023-02-28T06:46:20;94584.25;;;8.73;nan
23166;BME280;11751;42.700;24.170;2023-02-28T06:48:46;94588.25;;;8.90;nan
23166;BME280;11751;42.700;24.170;2023-02-28T06:51:18;94582.16;;;9.05;nan
23166;BME280;11751;42.700;24.170;2023-02-28T06:53:45;94583.34;;;9.09;nan
23166;BME280;11751;42.700;24.170;2023-02-28T06:56:13;94586.47;;;9.19;nan
23166;BME280;11751;42.700;24.170;2023-02-28T06:58:38;94590.56;;;9.18;nan
23166;BME280;11751;42.700;24.170;2023-02-28T07:01:05;94597.00;;;9.26;nan
23166;BME280;11751;42.700;24.170;2023-02-28T07:03:31;94601.53;;;9.29;nan
23166;BME280;11751;42.700;24.170;2023-02-28T07:05:56;94588.09;;;9.14;nan
23166;BME280;11751;42.700;24.170;2023-02-28T07:08:25;94591.97;;;9.24;nan
23166;BME280;11751;42.700;24.170;2023-02-28T07:10:53;94585.06;;;9.25;nan
23166;BME280;11751;42.700;24.170;2023-02-28T07:13:19;94576.25;;;9.21;nan
23166;BME280;11751;42.700;24.170;2023-02-28T07:15:44;94578.72;;;9.25;nan
23166;BME280;11751;42.700;24.170;2023-02-28T07:18:09;94574.13;;;9.40;nan
23166;BME280;11751;42.700;24.170;2023-02-28T07:20:35;94572.50;;;9.57;nan
23166;BME280;11751;42.700;24.170;2023-02-28T07:23:00;94538.88;;;9.24;nan
23166;BME280;11751;42.700;24.170;2023-02-28T07:25:27;94576.97;;;9.60;nan
23166;BME280;11751;42.700;24.170;2023-02-28T07:27:54;94577.75;;;9.74;nan
23166;BME280;11751;42.700;24.170;2023-02-28T07:30:20;94576.44;;;9.75;nan
23166;BME280;11751;42.700;24.170;2023-02-28T07:32:45;94578.59;;;9.69;nan
23166;BME280;11751;42.700;24.170;2023-02-28T07:35:10;94576.19;;;9.86;nan
23166;BME280;11751;42.700;24.170;2023-02-28T07:37:36;94588.38;;;9.88;nan
23166;BME280;11751;42.700;24.170;2023-02-28T07:40:04;94591.25;;;9.96;nan
23166;BME280;11751;42.700;24.170;2023-02-28T07:42:34;94584.34;;;10.10;nan
23166;BME280;11751;42.700;24.170;2023-02-28T07:45:00;94590.78;;;10.18;nan
23166;BME280;11751;42.700;24.170;2023-02-28T07:47:25;94592.88;;;10.37;nan
23166;BME280;11751;42.700;24.170;2023-02-28T07:49:51;94591.38;;;10.36;nan
23166;BME280;11751;42.700;24.170;2023-02-28T07:52:17;94588.09;;;10.45;nan
23166;BME280;11751;42.700;24.170;2023-02-28T07:54:42;94592.19;;;10.44;nan
23166;BME280;11751;42.700;24.170;2023-02-28T07:57:08;94593.03;;;10.52;nan
23166;BME280;11751;42.700;24.170;2023-02-28T07:59:33;94596.47;;;10.58;nan
23166;BME280;11751;42.700;24.170;2023-02-28T08:01:58;94608.94;;;10.57;nan
23166;BME280;11751;42.700;24.170;2023-02-28T08:04:24;94600.06;;;10.66;nan
23166;BME280;11751;42.700;24.170;2023-02-28T08:06:50;94601.94;;;10.64;nan
23166;BME280;11751;42.700;24.170;2023-02-28T08:09:17;94601.63;;;10.54;nan
23166;BME280;11751;42.700;24.170;2023-02-28T08:11:43;94611.06;;;10.64;nan
23166;BME280;11751;42.700;24.170;2023-02-28T08:14:08;94612.19;;;10.61;nan
23166;BME280;11751;42.700;24.170;2023-02-28T08:16:34;94609.63;;;10.71;nan
23166;BME280;11751;42.700;24.170;2023-02-28T08:18:59;94605.81;;;10.61;nan
23166;BME280;11751;42.700;24.170;2023-02-28T08:21:24;94603.91;;;10.56;nan
23166;BME280;11751;42.700;24.170;2023-02-28T08:23:50;94611.06;;;10.64;nan
23166;BME280;11751;42.700;24.170;2023-02-28T08:26:17;94607.88;;;10.60;nan
23166;BME280;11751;42.700;24.170;2023-02-28T08:28:43;94603.34;;;10.37;nan
23166;BME280;11751;42.700;24.170;2023-02-28T08:31:11;94606.19;;;10.44;nan
23166;BME280;11751;42.700;24.170;2023-02-28T08:33:37;94604.31;;;10.26;nan
23166;BME280;11751;42.700;24.170;2023-02-28T08:36:04;94603.72;;;10.41;nan
23166;BME280;11751;42.700;24.170;2023-02-28T08:38:30;94609.66;;;10.37;nan
23166;BME280;11751;42.700;24.170;2023-02-28T08:41:01;94601.50;;;10.39;nan
23166;BME280;11751;42.700;24.170;2023-02-28T08:43:28;94604.66;;;10.56;nan
23166;BME280;11751;42.700;24.170;2023-02-28T08:45:55;94609.81;;;10.52;nan
23166;BME280;11751;42.700;24.170;2023-02-28T08:48:23;94606.97;;;10.65;nan
23166;BME280;11751;42.700;24.170;2023-02-28T08:50:59;94604.84;;;10.79;nan
23166;BME280;11751;42.700;24.170;2023-02-28T08:53:25;94602.00;;;10.71;nan
23166;BME280;11751;42.700;24.170;2023-02-28T08:56:03;94611.09;;;10.85;nan
23166;BME280;11751;42.700;24.170;2023-02-28T08:58:29;94610.53;;;10.86;nan
23166;BME280;11751;42.700;24.170;2023-02-28T09:00:55;94603.09;;;11.09;nan
23166;BME280;11751;42.700;24.170;2023-02-28T09:03:22;94600.00;;;11.20;nan
23166;BME280;11751;42.700;24.170;2023-02-28T09:05:59;94600.91;;;11.43;nan
23166;BME280;11751;42.700;24.170;2023-02-28T09:08:27;94592.09;;;11.39;nan
23166;BME280;11751;42.700;24.170;2023-02-28T09:10:53;94585.72;;;11.59;nan
23166;BME280;11751;42.700;24.170;2023-02-28T09:13:20;94582.69;;;11.57;nan
23166;BME280;11751;42.700;24.170;2023-02-28T09:15:46;94570.19;;;12.00;nan
23166;BME280;11751;42.700;24.170;2023-02-28T09:18:12;94573.28;;;12.25;nan
23166;BME280;11751;42.700;24.170;2023-02-28T09:20:41;94573.50;;;12.34;nan
23166;BME280;11751;42.700;24.170;2023-02-28T09:23:08;94584.22;;;12.58;nan
23166;BME280;11751;42.700;24.170;2023-02-28T09:25:34;94580.53;;;12.78;nan
23166;BME280;11751;42.700;24.170;2023-02-28T09:28:00;94585.41;;;12.85;nan
23166;BME280;11751;42.700;24.170;2023-02-28T09:30:25;94582.56;;;12.70;nan
23166;BME280;11751;42.700;24.170;2023-02-28T09:32:51;94577.91;;;12.80;nan
23166;BME280;11751;42.700;24.170;2023-02-28T09:35:21;94589.97;;;13.03;nan
23166;BME280;11751;42.700;24.170;2023-02-28T09:37:48;94580.84;;;12.52;nan
23166;BME280;11751;42.700;24.170;2023-02-28T09:40:14;94578.66;;;12.73;nan
23166;BME280;11751;42.700;24.170;2023-02-28T09:42:45;94579.75;;;12.70;nan
23166;BME280;11751;42.700;24.170;2023-02-28T09:45:33;94587.25;;;12.53;nan
23166;BME280;11751;42.700;24.170;2023-02-28T09:48:04;94578.25;;;12.54;nan
23166;BME280;11751;42.700;24.170;2023-02-28T09:50:52;94571.53;;;12.57;nan
23166;BME280;11751;42.700;24.170;2023-02-28T09:53:26;94578.59;;;12.58;nan
23166;BME280;11751;42.700;24.170;2023-02-28T09:55:57;94568.53;;;12.70;nan
23166;BME280;11751;42.700;24.170;2023-02-28T09:58:42;94576.06;;;12.90;nan
23166;BME280;11751;42.700;24.170;2023-02-28T10:01:41;94565.22;;;13.09;nan
23166;BME280;11751;42.700;24.170;2023-02-28T10:06:50;94560.34;;;13.02;nan
23166;BME280;11751;42.700;24.170;2023-02-28T10:09:22;94544.22;;;13.02;nan
23166;BME280;11751;42.700;24.170;2023-02-28T10:11:52;94550.78;;;12.97;nan
23166;BME280;11751;42.700;24.170;2023-02-28T10:14:21;94544.97;;;13.03;nan
23166;BME280;11751;42.700;24.170;2023-02-28T10:19:30;94537.47;;;13.13;nan
23166;BME280;11751;42.700;24.170;2023-02-28T10:22:03;94546.28;;;13.02;nan
23166;BME280;11751;42.700;24.170;2023-02-28T10:24:39;94527.72;;;13.14;nan
23166;BME280;11751;42.700;24.170;2023-02-28T10:27:17;94545.72;;;13.11;nan
23166;BME280;11751;42.700;24.170;2023-02-28T10:29:48;94541.63;;;12.97;nan
23166;BME280;11751;42.700;24.170;2023-02-28T10:32:17;94543.06;;;12.83;nan
23166;BME280;11751;42.700;24.170;2023-02-28T10:34:43;94530.34;;;13.12;nan
23166;BME280;11751;42.700;24.170;2023-02-28T10:37:10;94538.75;;;13.27;nan
23166;BME280;11751;42.700;24.170;2023-02-28T10:39:37;94538.97;;;13.21;nan
23166;BME280;11751;42.700;24.170;2023-02-28T10:42:04;94519.66;;;13.18;nan
23166;BME280;11751;42.700;24.170;2023-02-28T10:44:30;94517.56;;;13.41;nan
23166;BME280;11751;42.700;24.170;2023-02-28T10:46:56;94519.00;;;13.57;nan
23166;BME280;11751;42.700;24.170;2023-02-28T10:49:27;94516.38;;;13.59;nan
23166;BME280;11751;42.700;24.170;2023-02-28T10:51:59;94514.88;;;13.72;nan
23166;BME280;11751;42.700;24.170;2023-02-28T10:54:32;94508.84;;;13.68;nan
23166;BME280;11751;42.700;24.170;2023-02-28T10:59:35;94499.00;;;13.92;nan
23166;BME280;11751;42.700;24.170;2023-02-28T11:02:00;94504.53;;;13.67;nan
23166;BME280;11751;42.700;24.170;2023-02-28T11:09:33;94484.63;;;13.80;nan
23166;BME280;11751;42.700;24.170;2023-02-28T11:12:01;94476.88;;;13.88;nan
23166;BME280;11751;42.700;24.170;2023-02-28T11:14:30;94480.69;;;13.83;nan
23166;BME280;11751;42.700;24.170;2023-02-28T11:17:02;94478.50;;;13.60;nan
23166;BME280;11751;42.700;24.170;2023-02-28T11:19:44;94488.50;;;13.46;nan
23166;BME280;11751;42.700;24.170;2023-02-28T11:22:18;94481.19;;;13.28;nan
23166;BME280;11751;42.700;24.170;2023-02-28T11:24:48;94483.88;;;13.11;nan
23166;BME280;11751;42.700;24.170;2023-02-28T11:29:55;94473.00;;;12.77;nan
23166;BME280;11751;42.700;24.170;2023-02-28T11:32:23;94480.50;;;12.90;nan
23166;BME280;11751;42.700;24.170;2023-02-28T11:37:36;94468.13;;;12.78;nan
23166;BME280;11751;42.700;24.170;2023-02-28T11:40:05;94465.88;;;12.69;nan
23166;BME280;11751;42.700;24.170;2023-02-28T11:53:10;94477.81;;;12.25;nan
23166;BME280;11751;42.700;24.170;2023-02-28T11:58:31;94471.78;;;12.06;nan
23166;BME280;11751;42.700;24.170;2023-02-28T12:01:17;94477.53;;;11.86;nan
23166;BME280;11751;42.700;24.170;2023-02-28T12:06:50;94471.31;;;11.72;nan
23166;BME280;11751;42.700;24.170;2023-02-28T12:22:43;94467.47;;;11.97;nan
23166;BME280;11751;42.700;24.170;2023-02-28T12:27:49;94475.50;;;11.93;nan
23166;BME280;11751;42.700;24.170;2023-02-28T12:30:31;94473.00;;;11.68;nan
23166;BME280;11751;42.700;24.170;2023-02-28T12:33:09;94474.81;;;11.58;nan
23166;BME280;11751;42.700;24.170;2023-02-28T12:36:07;94476.13;;;11.57;nan
23166;BME280;11751;42.700;24.170;2023-02-28T12:38:43;94476.81;;;11.50;nan
23166;BME280;11751;42.700;24.170;2023-02-28T12:41:16;94467.56;;;10.99;nan
23166;BME280;11751;42.700;24.170;2023-02-28T12:43:53;94473.19;;;10.99;nan
23166;BME280;11751;42.700;24.170;2023-02-28T12:46:28;94478.06;;;11.06;nan
23166;BME280;11751;42.700;24.170;2023-02-28T12:48:57;94470.75;;;10.75;nan
23166;BME280;11751;42.700;24.170;2023-02-28T12:51:25;94479.97;;;10.83;nan
23166;BME280;11751;42.700;24.170;2023-02-28T12:56:53;94477.56;;;10.87;nan
23166;BME280;11751;42.700;24.170;2023-02-28T12:59:48;94469.53;;;10.63;nan
23166;BME280;11751;42.700;24.170;2023-02-28T13:10:57;94457.31;;;10.53;nan
23166;BME280;11751;42.700;24.170;2023-02-28T13:13:25;94456.38;;;10.51;nan
23166;BME280;11751;42.700;24.170;2023-02-28T13:16:08;94463.75;;;10.61;nan
23166;BME280;11751;42.700;24.170;2023-02-28T13:18:41;94453.13;;;10.39;nan
23166;BME280;11751;42.700;24.170;2023-02-28T13:21:22;94456.13;;;10.41;nan
23166;BME280;11751;42.700;24.170;2023-02-28T13:26:21;94448.94;;;10.53;nan
23166;BME280;11751;42.700;24.170;2023-02-28T13:28:58;94452.69;;;10.56;nan
23166;BME280;11751;42.700;24.170;2023-02-28T13:31:24;94423.47;;;10.44;nan
23166;BME280;11751;42.700;24.170;2023-02-28T13:36:31;94448.69;;;10.72;nan
23166;BME280;11751;42.700;24.170;2023-02-28T13:39:02;94452.44;;;10.46;nan
23166;BME280;11751;42.700;24.170;2023-02-28T14:01:29;94456.16;;;9.88;nan
23166;BME280;11751;42.700;24.170;2023-02-28T14:06:37;94456.41;;;9.77;nan
23166;BME280;11751;42.700;24.170;2023-02-28T14:11:49;94472.53;;;9.84;nan
23166;BME280;11751;42.700;24.170;2023-02-28T14:17:15;94469.41;;;9.54;nan
23166;BME280;11751;42.700;24.170;2023-02-28T14:19:45;94470.00;;;9.60;nan
23166;BME280;11751;42.700;24.170;2023-02-28T14:30:43;94475.00;;;9.41;nan
23166;BME280;11751;42.700;24.170;2023-02-28T14:33:40;94471.75;;;9.50;nan
23166;BME280;11751;42.700;24.170;2023-02-28T14:38:54;94470.25;;;9.49;nan
23166;BME280;11751;42.700;24.170;2023-02-28T14:43:59;94465.22;;;9.34;nan
23166;BME280;11751;42.700;24.170;2023-02-28T14:46:30;94464.22;;;9.45;nan
23166;BME280;11751;42.700;24.170;2023-02-28T14:49:00;94474.56;;;9.37;nan
23166;BME280;11751;42.700;24.170;2023-02-28T14:51:25;94472.66;;;9.32;nan
23166;BME280;11751;42.700;24.170;2023-02-28T14:53:57;94469.66;;;9.30;nan
23166;BME280;11751;42.700;24.170;2023-02-28T14:56:30;94474.69;;;9.32;nan
23166;BME280;11751;42.700;24.170;2023-02-28T14:58:58;94462.44;;;9.22;nan
23166;BME280;11751;42.700;24.170;2023-02-28T15:01:24;94467.28;;;9.21;nan
23166;BME280;11751;42.700;24.170;2023-02-28T15:04:02;94471.78;;;9.37;nan
23166;BME280;11751;42.700;24.170;2023-02-28T15:06:28;94479.31;;;9.16;nan
23166;BME280;11751;42.700;24.170;2023-02-28T15:09:14;94475.06;;;9.15;nan
23166;BME280;11751;42.700;24.170;2023-02-28T15:11:40;94469.03;;;9.11;nan
23166;BME280;11751;42.700;24.170;2023-02-28T15:14:06;94473.53;;;9.01;nan
23166;BME280;11751;42.700;24.170;2023-02-28T15:16:35;94470.53;;;8.86;nan
23166;BME280;11751;42.700;24.170;2023-02-28T15:19:25;94471.84;;;8.85;nan
23166;BME280;11751;42.700;24.170;2023-02-28T15:22:05;94473.53;;;8.88;nan
23166;BME280;11751;42.700;24.170;2023-02-28T15:24:37;94473.97;;;8.92;nan
23166;BME280;11751;42.700;24.170;2023-02-28T15:27:12;94476.88;;;8.74;nan
23166;BME280;11751;42.700;24.170;2023-02-28T15:29:50;94471.38;;;8.68;nan
23166;BME280;11751;42.700;24.170;2023-02-28T15:32:24;94484.50;;;8.73;nan
23166;BME280;11751;42.700;24.170;2023-02-28T15:34:51;94485.34;;;8.68;nan
23166;BME280;11751;42.700;24.170;2023-02-28T15:37:30;94486.41;;;8.52;nan
23166;BME280;11751;42.700;24.170;2023-02-28T15:43:03;94479.31;;;8.51;nan
23166;BME280;11751;42.700;24.170;2023-02-28T15:45:36;94485.75;;;8.47;nan
23166;BME280;11751;42.700;24.170;2023-02-28T15:48:05;94486.59;;;8.42;nan
23166;BME280;11751;42.700;24.170;2023-02-28T15:50:31;94493.38;;;8.46;nan
23166;BME280;11751;42.700;24.170;2023-02-28T15:52:56;94494.53;;;8.38;nan
23166;BME280;11751;42.700;24.170;2023-02-28T15:55:24;94492.63;;;8.46;nan
23166;BME280;11751;42.700;24.170;2023-02-28T15:57:54;94495.06;;;8.36;nan
23166;BME280;11751;42.700;24.170;2023-02-28T16:00:23;94491.72;;;8.38;nan